Select Airport:
Chesapeake Regional Airport
Last updated: 18 minutes ago
Flight conditions: MVFR
Visibility: 10.0 statute miles
Sky Conditions:
   Overcast at 1600 feet
Wind From: 210°
Wind speed: 7 knots (8.05 mph)
Temperature: 19.3°C (66.74°F)
Dew Point: 16.1°C (60.98°F)
Altimiter setting: 30.27 in-hg
WX phone: 1-757-204-4290
WX freq: 123.675 MHz
Runway 23
   Crosswind component: 2.39 knots (2.75 mph)
   Headwind component: 6.58 knots (7.56 mph)
KCPK 071535Z AUTO 21007KT 10SM OVC016 19/16 A3027 RMK AO2 T01930161
FOR REFERENCE USE ONLY, DATA MAY NOT BE CURRENT.
ALWAYS CHECK FOR UP TO DATE INFORMATION.